Time;durP1;ratioP1;P1;durP2;ratioP2;P2;SDS_P1;SDS_P2;PMS_P1;PMS_P2;Temp;Humidity;BMP_temperature;BMP_pressure;BME280_temperature;BME280_humidity;BME280_pressure;Samples;Min_cycle;Max_cycle;Signal;HPM_P1;HPM_P2
2021/12/30 00:00:01;;;;;;;31.85;5.85;;;;;;;;;;5025052;28;20509;-67
2021/12/30 00:02:29;;;;;;;33.25;5.65;;;;;;;;;;5045782;28;20446;-67
2021/12/30 00:04:55;;;;;;;34.15;6.18;;;;;;;;;;5047472;28;20073;-67
2021/12/30 00:07:21;;;;;;;37.97;6.03;;;;;;;;;;5025265;28;20548;-67
2021/12/30 00:09:48;;;;;;;34.03;6.57;;;;;;;;;;5041191;28;20033;-67
2021/12/30 00:12:14;;;;;;;39.15;5.85;;;;;;;;;;5046543;28;20498;-67
2021/12/30 00:14:40;;;;;;;41.00;5.82;;;;;;;;;;5041476;28;20041;-67
2021/12/30 00:17:06;;;;;;;33.53;6.10;;;;;;;;;;5032521;28;20446;-67
2021/12/30 00:19:32;;;;;;;32.90;6.22;;;;;;;;;;5031023;28;20045;-67
2021/12/30 00:21:58;;;;;;;37.50;6.38;;;;;;;;;;5045253;28;20039;-67
2021/12/30 00:24:24;;;;;;;39.40;5.93;;;;;;;;;;5046137;28;20049;-67
2021/12/30 00:26:50;;;;;;;39.15;6.00;;;;;;;;;;5047360;28;20032;-67
2021/12/30 00:29:16;;;;;;;32.45;5.18;;;;;;;;;;5050375;28;20068;-67
2021/12/30 00:31:42;;;;;;;43.55;5.63;;;;;;;;;;5031978;28;20518;-67
2021/12/30 00:34:08;;;;;;;41.20;5.95;;;;;;;;;;5048414;28;20116;-67
2021/12/30 00:36:34;;;;;;;40.58;5.53;;;;;;;;;;5047780;28;20482;-67
2021/12/30 00:39:00;;;;;;;30.90;5.72;;;;;;;;;;5051017;28;20048;-67
2021/12/30 00:41:26;;;;;;;41.92;6.10;;;;;;;;;;5047013;28;20288;-67
2021/12/30 00:43:52;;;;;;;43.45;5.88;;;;;;;;;;5031580;28;20052;-67
2021/12/30 00:46:18;;;;;;;35.65;5.85;;;;;;;;;;5044769;28;20040;-67
2021/12/30 00:48:44;;;;;;;38.10;5.43;;;;;;;;;;5051847;28;20041;-67
2021/12/30 00:51:10;;;;;;;47.72;6.05;;;;;;;;;;5053942;28;20045;-67
2021/12/30 00:53:36;;;;;;;42.42;6.05;;;;;;;;;;5052972;28;20091;-67
2021/12/30 00:56:02;;;;;;;40.33;6.28;;;;;;;;;;5046612;28;20041;-67
2021/12/30 00:58:28;;;;;;;37.97;5.78;;;;;;;;;;5036225;28;20167;-67
2021/12/30 01:00:54;;;;;;;42.13;6.55;;;;;;;;;;5046981;28;20127;-67
2021/12/30 01:03:21;;;;;;;36.70;5.43;;;;;;;;;;5052199;28;20091;-67
2021/12/30 01:05:47;;;;;;;35.60;6.00;;;;;;;;;;5049558;28;20052;-67
2021/12/30 01:08:13;;;;;;;40.10;6.38;;;;;;;;;;5051894;28;20509;-67
2021/12/30 01:10:41;;;;;;;31.45;5.32;;;;;;;;;;5050692;28;20053;-67
2021/12/30 01:13:14;;;;;;;40.28;5.88;;;;;;;;;;5053439;28;20041;-67
2021/12/30 01:15:58;;;;;;;37.92;6.03;;;;;;;;;;5054212;28;20294;-67
2021/12/30 01:18:41;;;;;;;36.15;5.65;;;;;;;;;;5054354;28;20048;-67
2021/12/30 01:21:09;;;;;;;40.30;5.80;;;;;;;;;;5051665;28;20041;-67
2021/12/30 01:23:35;;;;;;;37.65;5.60;;;;;;;;;;5049176;28;20041;-67
2021/12/30 01:26:01;;;;;;;41.67;7.10;;;;;;;;;;5036201;28;20498;-67
2021/12/30 01:28:28;;;;;;;38.20;6.50;;;;;;;;;;5053988;28;20514;-67
2021/12/30 01:30:55;;;;;;;37.72;6.03;;;;;;;;;;5044985;28;20041;-67
2021/12/30 01:33:21;;;;;;;29.00;5.70;;;;;;;;;;5054519;28;20098;-67
2021/12/30 01:35:47;;;;;;;38.25;6.22;;;;;;;;;;5052982;28;20033;-67
2021/12/30 01:38:16;;;;;;;32.90;5.88;;;;;;;;;;5053895;28;20070;-67
2021/12/30 01:40:43;;;;;;;43.38;6.55;;;;;;;;;;5053195;28;20048;-67
2021/12/30 01:43:11;;;;;;;32.60;6.00;;;;;;;;;;5035607;28;20513;-67
2021/12/30 01:45:37;;;;;;;42.30;7.38;;;;;;;;;;5053261;28;20048;-67
2021/12/30 01:48:03;;;;;;;41.20;6.57;;;;;;;;;;5035967;28;20047;-67
2021/12/30 01:50:29;;;;;;;37.08;6.35;;;;;;;;;;5052331;28;20036;-67
2021/12/30 01:52:55;;;;;;;36.47;6.18;;;;;;;;;;5035331;28;20052;-67
2021/12/30 01:55:22;;;;;;;40.15;7.50;;;;;;;;;;5053803;28;20040;-67
2021/12/30 01:57:49;;;;;;;40.70;7.50;;;;;;;;;;5034062;28;20045;-67
2021/12/30 02:00:16;;;;;;;35.05;6.63;;;;;;;;;;5052514;28;20029;-67
2021/12/30 02:02:42;;;;;;;38.65;6.57;;;;;;;;;;5051411;28;20091;-67
2021/12/30 02:05:08;;;;;;;37.63;6.72;;;;;;;;;;5052786;28;20044;-67
2021/12/30 02:07:34;;;;;;;36.45;6.57;;;;;;;;;;5053651;28;20526;-67
2021/12/30 02:10:02;;;;;;;44.90;7.10;;;;;;;;;;5053394;28;20037;-67
2021/12/30 02:12:28;;;;;;;47.15;8.63;;;;;;;;;;5034376;28;20132;-67
2021/12/30 02:14:54;;;;;;;41.30;7.93;;;;;;;;;;5054521;28;20063;-67
2021/12/30 02:17:20;;;;;;;45.28;8.50;;;;;;;;;;5044664;28;20068;-67
2021/12/30 02:19:46;;;;;;;45.92;8.68;;;;;;;;;;5053053;28;20094;-67
2021/12/30 02:22:12;;;;;;;42.45;8.80;;;;;;;;;;5048203;28;20029;-67
2021/12/30 02:24:45;;;;;;;44.30;8.25;;;;;;;;;;5053024;28;20212;-67
2021/12/30 02:27:10;;;;;;;44.15;8.93;;;;;;;;;;5051527;28;20039;-67
2021/12/30 02:29:36;;;;;;;50.00;11.32;;;;;;;;;;5051934;28;20036;-67
2021/12/30 02:32:03;;;;;;;46.28;10.88;;;;;;;;;;5045848;28;20078;-67
2021/12/30 02:34:29;;;;;;;45.03;10.38;;;;;;;;;;5052065;28;20094;-67
2021/12/30 02:36:55;;;;;;;40.63;10.73;;;;;;;;;;5053058;28;20036;-67
2021/12/30 02:39:23;;;;;;;59.80;12.68;;;;;;;;;;5052584;28;20041;-67
2021/12/30 02:41:49;;;;;;;49.40;11.23;;;;;;;;;;5032999;28;20079;-67
2021/12/30 02:44:15;;;;;;;54.05;12.55;;;;;;;;;;5052479;28;20064;-67
2021/12/30 02:46:41;;;;;;;59.00;13.15;;;;;;;;;;5052140;28;20071;-67
2021/12/30 02:49:07;;;;;;;51.92;12.18;;;;;;;;;;5045622;28;20033;-67
2021/12/30 02:51:33;;;;;;;59.33;13.60;;;;;;;;;;5052429;28;20120;-67
2021/12/30 02:53:59;;;;;;;62.10;14.75;;;;;;;;;;5051079;28;20048;-67
2021/12/30 02:56:27;;;;;;;57.10;15.02;;;;;;;;;;5050110;28;20445;-67
2021/12/30 02:58:53;;;;;;;55.70;14.63;;;;;;;;;;5052007;28;20509;-67
2021/12/30 03:01:21;;;;;;;55.88;15.30;;;;;;;;;;5049056;28;20044;-67
2021/12/30 03:03:47;;;;;;;58.85;15.10;;;;;;;;;;5051488;28;20048;-67
2021/12/30 03:06:14;;;;;;;53.58;15.02;;;;;;;;;;5051281;28;20111;-67
2021/12/30 03:08:41;;;;;;;62.00;16.38;;;;;;;;;;5051212;28;20037;-67
2021/12/30 03:11:07;;;;;;;70.53;16.25;;;;;;;;;;5051049;28;20033;-67
2021/12/30 03:13:34;;;;;;;59.80;15.43;;;;;;;;;;5051595;28;20135;-67
2021/12/30 03:16:03;;;;;;;61.28;15.38;;;;;;;;;;5034140;28;20063;-67
2021/12/30 03:18:29;;;;;;;59.33;15.45;;;;;;;;;;5051483;28;20498;-67
2021/12/30 03:20:55;;;;;;;56.97;14.40;;;;;;;;;;5050482;28;20033;-66
2021/12/30 03:23:21;;;;;;;56.65;14.63;;;;;;;;;;5033607;28;20067;-67
2021/12/30 03:25:47;;;;;;;58.30;14.25;;;;;;;;;;5051864;28;20041;-67
2021/12/30 03:28:13;;;;;;;64.13;15.18;;;;;;;;;;5051866;28;20044;-67
2021/12/30 03:30:39;;;;;;;62.58;14.13;;;;;;;;;;5033935;28;20057;-67
2021/12/30 03:33:05;;;;;;;54.13;14.35;;;;;;;;;;5051307;28;20045;-67
2021/12/30 03:35:31;;;;;;;62.67;14.82;;;;;;;;;;5033287;28;20502;-67
2021/12/30 03:37:57;;;;;;;63.67;13.98;;;;;;;;;;5051497;28;20037;-67
2021/12/30 03:40:24;;;;;;;68.80;15.52;;;;;;;;;;5051428;28;20159;-67
2021/12/30 03:42:50;;;;;;;54.90;13.68;;;;;;;;;;5049581;28;20029;-67
2021/12/30 03:45:16;;;;;;;65.82;14.52;;;;;;;;;;5051672;28;20051;-67
2021/12/30 03:47:44;;;;;;;50.08;13.45;;;;;;;;;;5051688;28;20037;-67
2021/12/30 03:50:19;;;;;;;52.40;14.48;;;;;;;;;;5050974;28;20111;-67
2021/12/30 03:52:45;;;;;;;53.72;14.32;;;;;;;;;;5051111;28;20053;-67
2021/12/30 03:55:11;;;;;;;49.22;13.35;;;;;;;;;;5050786;28;20040;-67
2021/12/30 03:57:37;;;;;;;52.25;13.82;;;;;;;;;;5033862;28;20051;-67
2021/12/30 04:00:05;;;;;;;54.13;13.40;;;;;;;;;;5050482;28;20032;-67
2021/12/30 04:02:31;;;;;;;56.17;13.00;;;;;;;;;;5049269;28;20043;-67
2021/12/30 04:04:57;;;;;;;56.70;13.05;;;;;;;;;;5032628;28;20041;-67
2021/12/30 04:07:23;;;;;;;47.70;12.63;;;;;;;;;;5044107;28;20099;-67
2021/12/30 04:09:49;;;;;;;47.45;12.32;;;;;;;;;;5041702;28;20032;-67
2021/12/30 04:12:15;;;;;;;53.35;12.80;;;;;;;;;;5049921;28;20044;-67
2021/12/30 04:14:41;;;;;;;48.63;12.48;;;;;;;;;;5051148;28;20040;-67
2021/12/30 04:17:07;;;;;;;55.42;12.55;;;;;;;;;;5051077;28;20462;-67
2021/12/30 04:19:33;;;;;;;60.97;12.18;;;;;;;;;;5051023;28;20073;-67
2021/12/30 04:21:59;;;;;;;60.40;12.80;;;;;;;;;;5047681;28;20056;-67
2021/12/30 04:24:25;;;;;;;50.63;11.15;;;;;;;;;;5058561;28;20041;-67
2021/12/30 04:26:51;;;;;;;55.35;12.38;;;;;;;;;;5051263;28;20045;-67
2021/12/30 04:29:18;;;;;;;53.90;11.73;;;;;;;;;;5047505;28;20048;-67
2021/12/30 04:31:44;;;;;;;54.70;11.73;;;;;;;;;;5051095;28;20041;-67
2021/12/30 04:34:10;;;;;;;55.50;12.05;;;;;;;;;;5050613;28;20037;-67
2021/12/30 04:36:36;;;;;;;57.25;11.52;;;;;;;;;;5051129;28;20076;-69
2021/12/30 04:39:03;;;;;;;48.60;12.70;;;;;;;;;;5065488;22;20110;-67
2021/12/30 04:41:29;;;;;;;55.15;12.77;;;;;;;;;;5047033;28;20029;-67
2021/12/30 04:43:55;;;;;;;56.35;13.25;;;;;;;;;;5050839;28;20537;-67
2021/12/30 04:46:21;;;;;;;65.07;13.35;;;;;;;;;;5051223;28;20409;-67
2021/12/30 04:48:47;;;;;;;61.25;14.70;;;;;;;;;;5045163;28;20041;-66
2021/12/30 04:51:13;;;;;;;64.43;14.00;;;;;;;;;;5050519;28;20040;-67
2021/12/30 04:53:39;;;;;;;70.93;14.82;;;;;;;;;;5050521;28;20045;-67
2021/12/30 04:56:05;;;;;;;61.13;14.65;;;;;;;;;;5048223;28;20440;-67
2021/12/30 04:58:31;;;;;;;65.03;15.15;;;;;;;;;;5050645;28;20041;-67
2021/12/30 05:00:57;;;;;;;71.88;17.00;;;;;;;;;;5046277;28;20694;-67
2021/12/30 05:03:23;;;;;;;79.95;17.27;;;;;;;;;;5045107;28;20045;-67
2021/12/30 05:05:52;;;;;;;73.13;17.52;;;;;;;;;;5047173;28;20209;-66
2021/12/30 05:08:19;;;;;;;81.18;17.70;;;;;;;;;;5048630;28;20037;-66
2021/12/30 05:10:45;;;;;;;63.42;15.98;;;;;;;;;;5050357;28;20037;-66
2021/12/30 05:13:12;;;;;;;74.95;16.85;;;;;;;;;;5049884;28;20084;-66
2021/12/30 05:15:39;;;;;;;78.60;17.35;;;;;;;;;;5050584;28;20041;-66
2021/12/30 05:18:06;;;;;;;59.15;16.45;;;;;;;;;;5050787;28;20044;-66
2021/12/30 05:20:32;;;;;;;72.32;16.85;;;;;;;;;;5049005;28;20040;-66
2021/12/30 05:22:58;;;;;;;72.28;17.38;;;;;;;;;;5048694;28;20088;-66
2021/12/30 05:25:24;;;;;;;78.65;16.40;;;;;;;;;;5050057;28;20124;-65
2021/12/30 05:27:51;;;;;;;61.47;16.25;;;;;;;;;;5050359;28;20510;-66
2021/12/30 05:30:17;;;;;;;51.63;15.00;;;;;;;;;;5050258;28;20061;-66
2021/12/30 05:32:43;;;;;;;48.70;14.60;;;;;;;;;;5052342;28;20041;-66
2021/12/30 05:35:10;;;;;;;46.72;13.75;;;;;;;;;;5053044;28;20039;-66
2021/12/30 05:37:37;;;;;;;51.08;14.70;;;;;;;;;;5053096;28;20053;-66
2021/12/30 05:40:04;;;;;;;57.58;14.07;;;;;;;;;;5050832;28;20056;-66
2021/12/30 05:42:30;;;;;;;54.08;14.65;;;;;;;;;;5050444;28;20071;-65
2021/12/30 05:44:56;;;;;;;56.30;14.70;;;;;;;;;;5053036;28;20040;-66
2021/12/30 05:47:23;;;;;;;59.30;14.07;;;;;;;;;;5049376;28;20139;-66
2021/12/30 05:49:49;;;;;;;54.38;13.68;;;;;;;;;;5050870;28;20055;-66
2021/12/30 05:52:15;;;;;;;49.80;13.63;;;;;;;;;;5051350;28;20033;-66
2021/12/30 05:54:41;;;;;;;42.58;12.68;;;;;;;;;;5049023;28;20067;-66
2021/12/30 05:57:08;;;;;;;51.75;13.57;;;;;;;;;;5053348;28;20514;-66
2021/12/30 05:59:34;;;;;;;52.05;13.52;;;;;;;;;;5054209;28;20036;-66
2021/12/30 06:02:00;;;;;;;54.88;14.02;;;;;;;;;;5048651;28;20120;-66
2021/12/30 06:04:26;;;;;;;53.97;14.75;;;;;;;;;;5051589;28;20059;-66
2021/12/30 06:06:52;;;;;;;55.47;14.02;;;;;;;;;;5042187;28;20677;-66
2021/12/30 06:09:21;;;;;;;63.22;15.25;;;;;;;;;;5052708;28;20093;-66
2021/12/30 06:11:47;;;;;;;72.15;16.85;;;;;;;;;;5050660;28;20053;-66
2021/12/30 06:14:13;;;;;;;61.65;15.35;;;;;;;;;;5045685;28;20175;-66
2021/12/30 06:16:39;;;;;;;74.20;16.20;;;;;;;;;;5049008;28;20032;-66
2021/12/30 06:19:05;;;;;;;65.35;16.85;;;;;;;;;;5045962;28;20041;-66
2021/12/30 06:21:31;;;;;;;72.95;17.92;;;;;;;;;;5052163;28;20099;-67
2021/12/30 06:23:57;;;;;;;91.25;17.13;;;;;;;;;;5048381;28;20383;-66
2021/12/30 06:26:23;;;;;;;81.22;16.35;;;;;;;;;;5042517;28;20071;-66
2021/12/30 06:28:49;;;;;;;73.93;15.93;;;;;;;;;;5047987;28;20450;-66
2021/12/30 06:31:15;;;;;;;66.30;17.55;;;;;;;;;;5046132;28;20058;-66
2021/12/30 06:33:41;;;;;;;68.47;16.95;;;;;;;;;;5043522;28;20076;-66
2021/12/30 06:36:07;;;;;;;82.53;18.70;;;;;;;;;;5051376;28;20083;-66
2021/12/30 06:38:33;;;;;;;67.93;17.25;;;;;;;;;;5052239;28;20141;-66
2021/12/30 06:41:00;;;;;;;81.50;19.27;;;;;;;;;;5049388;28;20033;-67
2021/12/30 06:43:26;;;;;;;87.78;19.67;;;;;;;;;;5045721;28;20079;-66
2021/12/30 06:45:52;;;;;;;85.22;17.73;;;;;;;;;;5048283;28;20033;-67
2021/12/30 06:48:18;;;;;;;84.72;18.58;;;;;;;;;;5049988;28;20033;-66
2021/12/30 06:50:52;;;;;;;71.18;18.25;;;;;;;;;;5047907;28;20537;-66
2021/12/30 06:53:24;;;;;;;83.88;17.95;;;;;;;;;;5045345;28;20045;-66
2021/12/30 06:55:52;;;;;;;87.53;18.88;;;;;;;;;;5048579;28;20059;-66
2021/12/30 06:58:18;;;;;;;52.42;14.68;;;;;;;;;;5050789;28;20069;-66
2021/12/30 07:00:44;;;;;;;76.80;18.40;;;;;;;;;;5044356;28;20042;-66
2021/12/30 07:03:10;;;;;;;77.03;17.15;;;;;;;;;;5050455;28;20037;-66
2021/12/30 07:05:36;;;;;;;66.82;16.50;;;;;;;;;;5047744;28;20043;-66
2021/12/30 07:08:02;;;;;;;59.35;16.30;;;;;;;;;;5051800;28;20512;-66
2021/12/30 07:10:29;;;;;;;66.25;16.38;;;;;;;;;;5051345;28;20047;-66
2021/12/30 07:12:55;;;;;;;72.72;16.48;;;;;;;;;;5044529;28;20048;-66
2021/12/30 07:15:21;;;;;;;65.63;16.15;;;;;;;;;;5052103;28;20040;-66
2021/12/30 07:17:47;;;;;;;57.72;14.98;;;;;;;;;;5051530;28;20091;-66
2021/12/30 07:20:13;;;;;;;69.68;15.75;;;;;;;;;;5051543;28;20037;-66
2021/12/30 07:22:40;;;;;;;62.88;14.68;;;;;;;;;;5049976;28;20041;-66
2021/12/30 07:25:06;;;;;;;41.47;12.35;;;;;;;;;;5051146;28;20037;-66
2021/12/30 07:27:32;;;;;;;54.90;13.90;;;;;;;;;;5049384;28;20037;-66
2021/12/30 07:29:59;;;;;;;46.63;11.98;;;;;;;;;;5051900;28;20039;-66
2021/12/30 07:32:28;;;;;;;44.28;11.77;;;;;;;;;;5051719;28;20118;-66
2021/12/30 07:34:55;;;;;;;34.38;10.57;;;;;;;;;;5051459;28;20049;-66
2021/12/30 07:37:21;;;;;;;46.47;11.73;;;;;;;;;;5051263;28;20044;-65
2021/12/30 07:39:48;;;;;;;33.80;10.25;;;;;;;;;;5049403;28;20037;-66
2021/12/30 07:42:14;;;;;;;31.00;9.55;;;;;;;;;;5046758;28;20084;-66
2021/12/30 07:44:40;;;;;;;29.23;8.82;;;;;;;;;;5050391;28;20638;-67
2021/12/30 07:47:07;;;;;;;20.25;7.38;;;;;;;;;;5048144;28;20037;-67
2021/12/30 07:49:36;;;;;;;23.85;8.27;;;;;;;;;;5033719;28;20116;-66
2021/12/30 07:52:02;;;;;;;18.02;6.78;;;;;;;;;;5051141;28;20045;-67
2021/12/30 07:54:28;;;;;;;16.85;6.35;;;;;;;;;;5050796;28;20124;-67
2021/12/30 07:56:54;;;;;;;20.55;6.90;;;;;;;;;;5051528;28;20061;-68
2021/12/30 07:59:20;;;;;;;22.25;7.00;;;;;;;;;;5051851;28;20036;-67
2021/12/30 08:01:46;;;;;;;20.38;7.15;;;;;;;;;;5046417;28;20029;-67
2021/12/30 08:04:12;;;;;;;16.25;6.25;;;;;;;;;;5050936;28;20041;-67
2021/12/30 08:06:38;;;;;;;15.70;5.75;;;;;;;;;;5050765;28;20553;-67
2021/12/30 08:09:04;;;;;;;13.95;5.20;;;;;;;;;;5050621;28;20446;-67
2021/12/30 08:11:30;;;;;;;11.88;4.97;;;;;;;;;;5049803;28;20045;-66
2021/12/30 08:13:56;;;;;;;15.82;4.93;;;;;;;;;;5050859;28;20102;-66
2021/12/30 08:16:22;;;;;;;13.40;5.10;;;;;;;;;;5051706;28;20044;-67
2021/12/30 08:18:48;;;;;;;13.27;4.80;;;;;;;;;;5051751;28;20041;-67
2021/12/30 08:21:14;;;;;;;9.57;4.43;;;;;;;;;;5045763;28;20148;-67
2021/12/30 08:23:40;;;;;;;13.05;4.68;;;;;;;;;;5050714;28;20056;-67
2021/12/30 08:26:06;;;;;;;14.27;5.00;;;;;;;;;;5049783;28;20047;-66
2021/12/30 08:28:32;;;;;;;10.77;4.25;;;;;;;;;;5050552;28;20033;-66
2021/12/30 08:30:59;;;;;;;8.68;4.10;;;;;;;;;;5050907;28;20512;-67
2021/12/30 08:33:25;;;;;;;9.15;3.97;;;;;;;;;;5050792;28;20502;-67
2021/12/30 08:35:51;;;;;;;7.82;3.95;;;;;;;;;;5050451;28;20025;-67
2021/12/30 08:38:17;;;;;;;9.80;4.15;;;;;;;;;;5051237;28;20040;-67
2021/12/30 08:40:45;;;;;;;11.05;4.53;;;;;;;;;;5048995;28;20141;-67
2021/12/30 08:43:13;;;;;;;11.73;5.07;;;;;;;;;;5049603;28;20045;-67
2021/12/30 08:45:39;;;;;;;14.35;6.10;;;;;;;;;;5050553;28;20045;-67
2021/12/30 08:48:05;;;;;;;13.73;6.53;;;;;;;;;;5039222;28;20041;-67
2021/12/30 08:50:31;;;;;;;13.80;6.80;;;;;;;;;;5037564;28;20126;-67
2021/12/30 08:52:57;;;;;;;16.40;7.78;;;;;;;;;;5050665;28;20037;-67
2021/12/30 08:55:23;;;;;;;18.75;7.75;;;;;;;;;;5049860;28;20114;-67
2021/12/30 08:57:50;;;;;;;23.60;9.48;;;;;;;;;;5051390;28;20032;-67
2021/12/30 09:00:18;;;;;;;21.38;8.93;;;;;;;;;;5051516;28;20053;-67
2021/12/30 09:02:44;;;;;;;22.52;9.52;;;;;;;;;;5048761;28;20040;-67
2021/12/30 09:05:11;;;;;;;23.77;10.35;;;;;;;;;;5050731;28;20045;-67
2021/12/30 09:07:37;;;;;;;25.48;10.48;;;;;;;;;;5052401;28;20079;-67
2021/12/30 09:10:04;;;;;;;25.58;10.75;;;;;;;;;;5053261;28;20037;-67
2021/12/30 09:12:30;;;;;;;18.42;9.10;;;;;;;;;;5053658;28;20036;-66
2021/12/30 09:14:56;;;;;;;21.05;9.25;;;;;;;;;;5054797;28;20047;-67
2021/12/30 09:17:22;;;;;;;20.42;10.52;;;;;;;;;;5053127;28;20075;-66
2021/12/30 09:19:48;;;;;;;23.83;10.60;;;;;;;;;;5051528;28;20048;-66
2021/12/30 09:22:14;;;;;;;21.33;11.00;;;;;;;;;;5050593;28;20440;-65
2021/12/30 09:24:41;;;;;;;21.30;10.40;;;;;;;;;;5051847;28;20053;-66
2021/12/30 09:27:07;;;;;;;22.00;10.63;;;;;;;;;;5047119;28;20045;-66
2021/12/30 09:29:33;;;;;;;21.40;11.02;;;;;;;;;;5052601;28;20041;-65
2021/12/30 09:31:59;;;;;;;22.85;10.57;;;;;;;;;;5053186;28;20041;-65
2021/12/30 09:34:25;;;;;;;18.95;8.55;;;;;;;;;;5039379;28;20094;-66
2021/12/30 09:36:51;;;;;;;21.83;10.15;;;;;;;;;;5051563;28;20037;-66
2021/12/30 09:39:17;;;;;;;20.65;10.32;;;;;;;;;;5047257;28;20076;-67
2021/12/30 09:41:44;;;;;;;20.33;10.98;;;;;;;;;;5051495;28;20040;-67
2021/12/30 09:44:11;;;;;;;25.40;11.35;;;;;;;;;;5054150;28;20045;-66
2021/12/30 09:46:37;;;;;;;26.63;11.07;;;;;;;;;;5053270;28;20415;-66
2021/12/30 09:49:05;;;;;;;23.60;10.85;;;;;;;;;;5053559;28;20044;-66
2021/12/30 09:51:31;;;;;;;22.60;9.85;;;;;;;;;;5051803;28;20052;-66
2021/12/30 09:53:57;;;;;;;21.15;10.02;;;;;;;;;;5051012;28;20610;-66
2021/12/30 09:56:23;;;;;;;17.52;7.90;;;;;;;;;;5041901;28;20037;-66
2021/12/30 09:58:49;;;;;;;20.70;9.13;;;;;;;;;;5049478;28;20033;-66
2021/12/30 10:01:15;;;;;;;21.20;9.77;;;;;;;;;;5049499;28;20032;-66
2021/12/30 10:03:46;;;;;;;21.15;8.80;;;;;;;;;;5051278;28;20572;-66
2021/12/30 10:06:13;;;;;;;22.20;10.27;;;;;;;;;;5052908;28;20032;-65
2021/12/30 10:08:42;;;;;;;16.70;9.65;;;;;;;;;;5049255;28;20041;-66
2021/12/30 10:11:13;;;;;;;22.40;9.88;;;;;;;;;;5052429;28;20552;-66
2021/12/30 10:13:42;;;;;;;23.20;10.35;;;;;;;;;;5049767;28;20049;-66
2021/12/30 10:16:12;;;;;;;22.70;9.07;;;;;;;;;;5049941;28;20495;-65
2021/12/30 10:18:41;;;;;;;22.45;9.93;;;;;;;;;;5046088;28;20064;-66
2021/12/30 10:21:13;;;;;;;18.02;8.90;;;;;;;;;;5050322;28;20040;-65
2021/12/30 10:23:43;;;;;;;24.10;9.23;;;;;;;;;;5051215;28;20043;-66
2021/12/30 10:26:09;;;;;;;19.15;7.32;;;;;;;;;;5052198;28;20116;-66
2021/12/30 10:28:36;;;;;;;25.20;9.30;;;;;;;;;;5045972;28;21804;-66
2021/12/30 10:31:11;;;;;;;20.42;8.70;;;;;;;;;;5046106;28;20089;-66
2021/12/30 10:33:56;;;;;;;22.77;8.93;;;;;;;;;;5049440;28;20401;-65
2021/12/30 10:36:24;;;;;;;26.17;8.73;;;;;;;;;;5047353;28;20045;-65
2021/12/30 10:38:51;;;;;;;25.45;8.35;;;;;;;;;;5067045;22;20124;-65
2021/12/30 10:41:17;;;;;;;22.10;7.85;;;;;;;;;;5039892;28;20045;-65
2021/12/30 10:46:12;;;;;;;18.90;7.43;;;;;;;;;;5050464;28;20044;-65
2021/12/30 10:48:57;;;;;;;20.73;6.95;;;;;;;;;;5050967;28;20044;-65
2021/12/30 10:51:25;;;;;;;18.02;6.90;;;;;;;;;;5050266;28;20037;-65
2021/12/30 10:53:52;;;;;;;17.73;6.68;;;;;;;;;;5049366;28;20049;-65
2021/12/30 10:56:29;;;;;;;12.43;4.93;;;;;;;;;;5049101;28;20045;-65
2021/12/30 10:58:56;;;;;;;17.40;6.20;;;;;;;;;;5050426;28;20151;-65
2021/12/30 11:01:24;;;;;;;17.17;6.55;;;;;;;;;;5050283;28;20091;-65
2021/12/30 11:03:58;;;;;;;18.50;6.15;;;;;;;;;;5049725;28;20402;-65
2021/12/30 11:06:24;;;;;;;14.80;5.63;;;;;;;;;;5051958;28;20047;-65
2021/12/30 11:09:03;;;;;;;15.30;6.28;;;;;;;;;;5049283;28;20045;-65
2021/12/30 11:11:29;;;;;;;27.25;6.85;;;;;;;;;;5048660;28;20445;-65
2021/12/30 11:14:01;;;;;;;26.52;7.15;;;;;;;;;;5051207;28;20083;-65
2021/12/30 11:16:27;;;;;;;23.42;6.78;;;;;;;;;;5050552;28;20061;-65
2021/12/30 11:18:56;;;;;;;23.85;7.05;;;;;;;;;;5044485;28;20163;-65
2021/12/30 11:21:41;;;;;;;29.33;6.50;;;;;;;;;;5047327;28;20048;-65
2021/12/30 11:24:08;;;;;;;26.17;6.45;;;;;;;;;;5047278;28;20036;-65
2021/12/30 11:26:35;;;;;;;24.83;7.07;;;;;;;;;;5047708;28;20403;-65
2021/12/30 11:29:02;;;;;;;28.92;6.45;;;;;;;;;;5052034;28;20119;-65
2021/12/30 11:31:29;;;;;;;25.98;6.78;;;;;;;;;;5047180;28;20036;-65
2021/12/30 11:33:55;;;;;;;25.20;6.63;;;;;;;;;;5051562;28;20041;-65
2021/12/30 11:36:21;;;;;;;31.95;7.65;;;;;;;;;;5051189;28;20041;-65
2021/12/30 11:38:47;;;;;;;26.02;7.18;;;;;;;;;;5050301;28;20070;-65
2021/12/30 11:41:18;;;;;;;26.13;6.25;;;;;;;;;;5050203;28;20719;-65
2021/12/30 11:43:45;;;;;;;31.60;7.50;;;;;;;;;;5050389;28;20414;-65
2021/12/30 11:46:30;;;;;;;29.80;6.93;;;;;;;;;;5051532;28;20512;-65
2021/12/30 11:48:57;;;;;;;32.05;7.35;;;;;;;;;;5051229;28;20047;-65
2021/12/30 11:51:23;;;;;;;28.67;6.63;;;;;;;;;;5048202;28;20075;-65
2021/12/30 11:53:52;;;;;;;28.42;6.00;;;;;;;;;;5052836;28;20041;-65
2021/12/30 11:56:22;;;;;;;29.17;6.68;;;;;;;;;;5048504;28;20066;-65
2021/12/30 11:58:53;;;;;;;26.57;6.37;;;;;;;;;;5033532;28;20045;-65
2021/12/30 12:01:20;;;;;;;29.52;7.45;;;;;;;;;;5049113;28;20796;-65
2021/12/30 12:04:16;;;;;;;29.50;7.53;;;;;;;;;;5049598;28;20114;-65
2021/12/30 12:06:44;;;;;;;25.05;7.38;;;;;;;;;;5035336;28;20495;-65
2021/12/30 12:09:13;;;;;;;26.25;6.93;;;;;;;;;;5047916;28;20454;-64
2021/12/30 12:11:42;;;;;;;28.63;7.88;;;;;;;;;;5047991;28;20612;-65
2021/12/30 12:14:19;;;;;;;28.02;7.07;;;;;;;;;;5049803;28;20033;-65
2021/12/30 12:16:56;;;;;;;35.67;8.85;;;;;;;;;;5047887;28;20437;-65
2021/12/30 12:19:32;;;;;;;25.67;7.45;;;;;;;;;;5050658;28;20449;-65
2021/12/30 12:21:58;;;;;;;34.38;6.90;;;;;;;;;;5053090;28;20075;-65
2021/12/30 12:24:29;;;;;;;26.15;6.88;;;;;;;;;;5031035;28;20103;-65
2021/12/30 12:26:56;;;;;;;35.97;8.05;;;;;;;;;;5045273;28;20037;-65
2021/12/30 12:29:26;;;;;;;31.10;7.50;;;;;;;;;;5042269;28;20045;-65
2021/12/30 12:32:12;;;;;;;30.27;7.85;;;;;;;;;;5045730;28;20161;-65
2021/12/30 12:34:41;;;;;;;20.90;6.10;;;;;;;;;;5055365;28;20075;-65
2021/12/30 12:37:27;;;;;;;33.25;7.10;;;;;;;;;;5051271;28;20029;-65
2021/12/30 12:40:07;;;;;;;30.88;7.72;;;;;;;;;;5051164;28;20086;-65
2021/12/30 12:42:51;;;;;;;28.83;7.05;;;;;;;;;;5052619;28;20039;-65
2021/12/30 12:45:20;;;;;;;23.75;6.85;;;;;;;;;;5052343;28;20033;-65
2021/12/30 12:47:47;;;;;;;25.20;6.68;;;;;;;;;;5044350;28;20032;-65
2021/12/30 12:50:13;;;;;;;25.13;7.45;;;;;;;;;;5051841;28;20090;-65
2021/12/30 12:52:43;;;;;;;23.00;6.35;;;;;;;;;;5050460;28;20041;-66
2021/12/30 12:55:13;;;;;;;34.00;6.67;;;;;;;;;;5052709;28;20074;-65
2021/12/30 12:57:41;;;;;;;20.38;4.97;;;;;;;;;;5052308;28;20033;-66
2021/12/30 13:00:08;;;;;;;23.35;7.07;;;;;;;;;;5052674;28;20035;-65
2021/12/30 13:02:34;;;;;;;38.40;7.63;;;;;;;;;;5051298;28;20037;-65
2021/12/30 13:05:26;;;;;;;25.77;6.97;;;;;;;;;;5053808;28;20052;-65
2021/12/30 13:07:54;;;;;;;28.13;7.72;;;;;;;;;;5053172;28;20506;-65
2021/12/30 13:10:21;;;;;;;29.92;7.18;;;;;;;;;;5053989;28;20072;-66
2021/12/30 13:12:47;;;;;;;29.45;8.38;;;;;;;;;;5050332;28;20440;-65
2021/12/30 13:15:15;;;;;;;29.10;8.15;;;;;;;;;;5054154;28;20052;-65
2021/12/30 13:17:43;;;;;;;25.85;7.50;;;;;;;;;;5054168;28;20534;-65
2021/12/30 13:20:09;;;;;;;26.45;8.52;;;;;;;;;;5054984;28;20044;-66
2021/12/30 13:22:35;;;;;;;28.02;7.53;;;;;;;;;;5054500;28;20075;-66
2021/12/30 13:25:04;;;;;;;33.85;9.68;;;;;;;;;;5054623;28;20037;-65
2021/12/30 13:27:32;;;;;;;25.25;8.32;;;;;;;;;;5054768;28;20037;-65
2021/12/30 13:30:05;;;;;;;29.65;9.20;;;;;;;;;;5054629;28;20112;-65
2021/12/30 13:32:34;;;;;;;32.67;9.38;;;;;;;;;;5046126;28;20037;-65
2021/12/30 13:35:02;;;;;;;38.13;9.35;;;;;;;;;;5050652;28;20119;-65
2021/12/30 13:37:48;;;;;;;34.65;10.20;;;;;;;;;;5049570;28;20041;-66
2021/12/30 13:40:17;;;;;;;29.80;8.75;;;;;;;;;;5044817;28;20060;-65
2021/12/30 13:42:50;;;;;;;27.25;8.88;;;;;;;;;;5047919;28;20135;-65
2021/12/30 13:45:17;;;;;;;31.13;8.98;;;;;;;;;;5053713;28;20033;-65
2021/12/30 13:47:43;;;;;;;33.15;8.88;;;;;;;;;;5052264;28;20079;-65
2021/12/30 13:50:14;;;;;;;23.80;7.82;;;;;;;;;;5052321;28;20037;-66
2021/12/30 13:52:41;;;;;;;27.95;8.85;;;;;;;;;;5045968;28;20514;-65
2021/12/30 13:55:07;;;;;;;36.88;9.35;;;;;;;;;;5054434;28;20037;-65
2021/12/30 13:57:33;;;;;;;31.70;9.05;;;;;;;;;;5049736;28;20452;-65
2021/12/30 14:00:00;;;;;;;34.13;8.90;;;;;;;;;;5053830;28;20464;-65
2021/12/30 14:02:26;;;;;;;33.60;9.05;;;;;;;;;;5052827;28;20048;-65
2021/12/30 14:05:02;;;;;;;33.70;9.15;;;;;;;;;;5051148;28;20032;-65
2021/12/30 14:07:32;;;;;;;30.30;8.60;;;;;;;;;;5053813;28;20076;-65
2021/12/30 14:09:58;;;;;;;27.63;8.65;;;;;;;;;;5053324;28;20052;-65
2021/12/30 14:12:24;;;;;;;30.88;8.95;;;;;;;;;;5049337;28;20102;-64
2021/12/30 14:14:50;;;;;;;38.05;9.32;;;;;;;;;;5052523;28;20120;-65
2021/12/30 14:17:17;;;;;;;27.17;9.05;;;;;;;;;;5053634;28;20387;-65
2021/12/30 14:19:49;;;;;;;34.67;9.75;;;;;;;;;;5053451;28;20091;-65
2021/12/30 14:22:15;;;;;;;27.13;9.52;;;;;;;;;;5051574;28;20553;-65
2021/12/30 14:24:41;;;;;;;28.48;9.15;;;;;;;;;;5052946;28;20033;-64
2021/12/30 14:27:15;;;;;;;26.88;8.55;;;;;;;;;;5053057;28;20039;-65